Time;durP1;ratioP1;P1;durP2;ratioP2;P2;SDS_P1;SDS_P2;PMS_P1;PMS_P2;Temp;Humidity;BMP_temperature;BMP_pressure;BME280_temperature;BME280_humidity;BME280_pressure;Samples;Min_cycle;Max_cycle;Signal;HPM_P1;HPM_P2
2023/06/06 00:00:14;;;;;;;3.17;1.30;;;19.20;95.80;;;;;;4993720;28;20028;-68
2023/06/06 00:02:44;;;;;;;2.03;0.98;;;19.30;95.80;;;;;;5002962;28;20032;-69
2023/06/06 00:05:12;;;;;;;2.90;1.13;;;19.10;96.50;;;;;;4984214;28;20394;-68
2023/06/06 00:07:40;;;;;;;2.60;1.23;;;19.10;96.70;;;;;;4995346;28;20058;-68
2023/06/06 00:10:08;;;;;;;1.48;1.10;;;19.00;97.40;;;;;;4986720;28;20040;-68
2023/06/06 00:12:34;;;;;;;5.15;1.13;;;19.00;97.40;;;;;;4985340;28;20064;-68
2023/06/06 00:15:00;;;;;;;4.50;1.67;;;19.00;98.10;;;;;;5001307;28;20038;-69
2023/06/06 00:17:27;;;;;;;1.88;0.93;;;19.00;97.60;;;;;;5001337;28;20042;-68
2023/06/06 00:19:53;;;;;;;3.40;1.27;;;19.10;97.70;;;;;;5001254;28;20026;-68
2023/06/06 00:22:22;;;;;;;3.45;1.42;;;19.10;97.70;;;;;;5002560;28;20030;-69
2023/06/06 00:24:52;;;;;;;1.38;0.90;;;19.20;97.60;;;;;;4998527;28;20019;-69
2023/06/06 00:27:19;;;;;;;2.35;1.13;;;19.20;97.40;;;;;;5003155;28;20034;-69
2023/06/06 00:29:46;;;;;;;2.90;1.27;;;19.10;97.70;;;;;;4980881;28;20049;-69
2023/06/06 00:32:11;;;;;;;3.78;1.15;;;19.10;97.10;;;;;;4985207;28;20026;-68
2023/06/06 00:34:37;;;;;;;1.65;1.23;;;19.10;97.00;;;;;;4984350;28;20037;-69
2023/06/06 00:37:03;;;;;;;2.40;1.40;;;19.10;97.40;;;;;;4984515;28;20504;-68
2023/06/06 00:39:29;;;;;;;2.72;1.20;;;19.00;97.60;;;;;;5003150;28;20027;-69
2023/06/06 00:41:55;;;;;;;2.15;1.25;;;19.00;97.70;;;;;;5001015;28;20037;-68
2023/06/06 00:44:21;;;;;;;2.35;1.33;;;19.00;97.80;;;;;;4986599;28;20367;-68
2023/06/06 00:46:48;;;;;;;3.67;1.48;;;19.00;98.00;;;;;;5000193;28;20088;-68
2023/06/06 00:49:15;;;;;;;3.75;1.45;;;19.00;98.00;;;;;;4984556;28;20043;-67
2023/06/06 00:51:43;;;;;;;3.38;1.73;;;19.00;97.80;;;;;;4978418;28;20492;-68
2023/06/06 00:54:15;;;;;;;2.97;1.38;;;19.00;97.90;;;;;;4970950;28;20043;-68
2023/06/06 00:56:44;;;;;;;2.58;1.58;;;18.90;98.00;;;;;;4974981;28;20117;-68
2023/06/06 00:59:11;;;;;;;2.65;1.50;;;18.90;98.20;;;;;;4957995;28;20034;-69
2023/06/06 01:01:39;;;;;;;2.90;1.23;;;18.90;98.80;;;;;;4998915;28;20015;-68
2023/06/06 01:04:10;;;;;;;2.65;1.13;;;18.90;98.70;;;;;;4985689;28;20022;-68
2023/06/06 01:06:37;;;;;;;1.60;1.02;;;18.80;99.40;;;;;;4985870;28;20034;-67
2023/06/06 01:09:09;;;;;;;3.03;1.85;;;18.60;99.90;;;;;;4962563;28;20057;-67
2023/06/06 01:11:51;;;;;;;3.83;1.50;;;18.60;99.90;;;;;;4983677;28;20040;-68
2023/06/06 01:14:37;;;;;;;4.93;1.20;;;18.50;99.90;;;;;;4974951;28;20038;-67
2023/06/06 01:17:07;;;;;;;2.00;1.20;;;18.60;99.90;;;;;;4986846;28;20037;-68
2023/06/06 01:19:34;;;;;;;3.38;1.17;;;18.70;99.90;;;;;;4999494;28;20031;-67
2023/06/06 01:22:00;;;;;;;3.35;1.77;;;18.60;99.90;;;;;;5003457;28;20081;-68
2023/06/06 01:24:27;;;;;;;2.20;1.20;;;18.50;99.90;;;;;;4983154;28;20363;-69
2023/06/06 01:26:54;;;;;;;2.28;1.27;;;18.50;99.90;;;;;;4974237;28;20035;-69
2023/06/06 01:29:21;;;;;;;2.83;1.55;;;18.50;99.90;;;;;;5002729;28;20023;-69
2023/06/06 01:32:00;;;;;;;3.08;1.10;;;18.40;99.90;;;;;;5000273;28;20032;-69
2023/06/06 01:34:33;;;;;;;3.42;1.63;;;18.40;99.90;;;;;;4990068;28;20092;-70
2023/06/06 01:37:22;;;;;;;4.15;1.70;;;18.40;99.90;;;;;;4987369;28;20061;-69
2023/06/06 01:39:53;;;;;;;6.78;1.65;;;18.30;99.90;;;;;;4988307;28;20437;-69
2023/06/06 01:42:21;;;;;;;3.78;1.83;;;18.10;99.90;;;;;;5002858;28;20375;-69
2023/06/06 01:44:52;;;;;;;3.42;1.77;;;18.20;99.90;;;;;;4976449;28;20551;-69
2023/06/06 01:47:19;;;;;;;3.60;1.65;;;18.10;99.90;;;;;;4987647;28;20513;-69
2023/06/06 01:49:45;;;;;;;2.75;1.23;;;18.00;99.90;;;;;;4974941;28;20027;-69
2023/06/06 01:52:11;;;;;;;4.75;1.42;;;17.70;99.90;;;;;;4977023;28;20113;-69
2023/06/06 01:54:40;;;;;;;3.78;1.63;;;17.50;99.90;;;;;;4988906;28;20368;-69
2023/06/06 01:57:07;;;;;;;3.35;1.70;;;17.60;99.90;;;;;;5004865;28;20389;-69
2023/06/06 01:59:33;;;;;;;5.40;1.90;;;17.70;99.90;;;;;;4998777;28;20034;-70
2023/06/06 02:02:00;;;;;;;3.15;1.55;;;17.80;99.90;;;;;;5002837;28;20101;-69
2023/06/06 02:04:26;;;;;;;4.88;1.77;;;17.80;99.90;;;;;;5000569;28;20053;-69
2023/06/06 02:06:51;;;;;;;2.65;1.42;;;17.90;99.90;;;;;;5000711;28;20490;-69
2023/06/06 02:09:17;;;;;;;3.92;1.75;;;18.00;99.90;;;;;;5002891;28;20038;-70
2023/06/06 02:11:43;;;;;;;5.78;1.60;;;18.10;99.90;;;;;;4998271;28;20027;-69
2023/06/06 02:14:09;;;;;;;5.47;1.98;;;18.20;99.90;;;;;;5004768;28;20045;-70
2023/06/06 02:16:36;;;;;;;4.85;1.98;;;18.20;99.90;;;;;;4980396;28;20098;-69
2023/06/06 02:19:02;;;;;;;2.78;1.10;;;18.00;99.90;;;;;;4971488;28;20034;-69
2023/06/06 02:21:28;;;;;;;3.15;1.80;;;18.10;99.90;;;;;;4996369;28;20038;-69
2023/06/06 02:23:54;;;;;;;3.25;1.60;;;17.80;99.90;;;;;;4990262;28;20121;-69
2023/06/06 02:26:21;;;;;;;3.00;1.63;;;17.80;99.90;;;;;;5000795;28;20031;-70
2023/06/06 02:28:47;;;;;;;3.03;1.30;;;17.80;99.90;;;;;;5006649;28;20040;-69
2023/06/06 02:31:14;;;;;;;2.88;1.33;;;17.80;99.90;;;;;;5000824;28;20105;-69
2023/06/06 02:33:40;;;;;;;2.13;1.20;;;17.90;99.90;;;;;;5007549;28;20029;-69
2023/06/06 02:36:08;;;;;;;2.55;1.35;;;18.00;99.90;;;;;;4975697;28;20494;-69
2023/06/06 02:38:33;;;;;;;3.38;1.17;;;18.10;99.90;;;;;;5007600;28;20037;-69
2023/06/06 02:40:59;;;;;;;2.88;1.48;;;18.10;99.90;;;;;;4992902;28;20033;-69
2023/06/06 02:43:25;;;;;;;5.22;1.70;;;18.00;99.90;;;;;;5006158;28;20022;-69
2023/06/06 02:45:51;;;;;;;2.97;1.30;;;18.10;99.90;;;;;;4993793;28;20412;-69
2023/06/06 02:48:17;;;;;;;9.45;2.05;;;18.10;99.90;;;;;;5005240;28;20041;-69
2023/06/06 02:50:42;;;;;;;1.90;1.13;;;18.10;99.90;;;;;;5002380;28;20033;-69
2023/06/06 02:53:08;;;;;;;1.75;0.98;;;18.00;99.90;;;;;;5003757;28;20041;-69
2023/06/06 02:55:34;;;;;;;2.03;0.73;;;17.90;99.90;;;;;;4994967;28;20040;-69
2023/06/06 02:57:59;;;;;;;4.93;1.33;;;17.90;99.90;;;;;;4986100;28;20482;-69
2023/06/06 03:00:25;;;;;;;1.67;1.10;;;18.00;99.90;;;;;;4995008;28;20107;-69
2023/06/06 03:02:51;;;;;;;2.97;1.70;;;17.90;99.90;;;;;;4992848;28;20041;-68
2023/06/06 03:05:17;;;;;;;5.15;1.63;;;18.00;99.90;;;;;;4989080;28;20106;-69
2023/06/06 03:07:42;;;;;;;3.33;1.38;;;17.70;99.90;;;;;;4988648;28;20025;-68
2023/06/06 03:10:09;;;;;;;3.75;1.38;;;17.80;99.90;;;;;;5002329;28;20163;-69
2023/06/06 03:12:35;;;;;;;3.38;1.33;;;17.70;99.90;;;;;;5001389;28;20022;-69
2023/06/06 03:15:01;;;;;;;2.50;1.70;;;17.50;99.90;;;;;;4990455;28;20049;-68
2023/06/06 03:17:26;;;;;;;2.28;1.45;;;17.20;99.90;;;;;;4985504;28;20030;-69
2023/06/06 03:19:52;;;;;;;3.42;1.85;;;17.20;99.90;;;;;;5000960;28;20109;-69
2023/06/06 03:22:18;;;;;;;2.30;1.23;;;17.10;99.90;;;;;;5003201;28;20403;-69
2023/06/06 03:24:49;;;;;;;3.97;1.40;;;17.30;99.90;;;;;;4984311;28;20034;-69
2023/06/06 03:27:15;;;;;;;;;;;17.20;99.90;;;;;;4986758;28;20069;-69
2023/06/06 03:29:40;;;;;;;3.13;1.73;;;17.30;99.90;;;;;;4994234;28;20345;-69
2023/06/06 03:32:07;;;;;;;3.60;1.83;;;17.40;99.90;;;;;;4999424;28;20030;-71
2023/06/06 03:34:33;;;;;;;4.50;1.75;;;17.40;99.90;;;;;;4973160;28;20038;-69
2023/06/06 03:36:59;;;;;;;4.30;1.65;;;17.40;99.90;;;;;;4996430;28;20039;-69
2023/06/06 03:39:25;;;;;;;3.72;2.08;;;17.20;99.90;;;;;;4998735;28;20542;-69
2023/06/06 03:41:51;;;;;;;7.57;1.95;;;17.20;99.90;;;;;;4998755;28;20398;-69
2023/06/06 03:44:17;;;;;;;3.75;1.70;;;17.20;99.90;;;;;;5005555;28;20037;-69
2023/06/06 03:46:42;;;;;;;3.50;2.10;;;17.20;99.90;;;;;;4999384;28;20059;-68
2023/06/06 03:49:08;;;;;;;2.90;1.48;;;17.00;99.90;;;;;;5006134;28;20042;-69
2023/06/06 03:51:35;;;;;;;4.07;1.70;;;16.80;99.90;;;;;;4999497;28;20031;-69
2023/06/06 03:54:01;;;;;;;4.85;1.65;;;16.90;99.90;;;;;;5003864;28;20030;-68
2023/06/06 03:56:27;;;;;;;5.25;2.17;;;16.90;99.90;;;;;;4993902;28;20036;-69
2023/06/06 03:58:53;;;;;;;4.18;1.80;;;17.00;99.90;;;;;;5005549;28;20511;-69
2023/06/06 04:01:21;;;;;;;4.10;2.13;;;16.90;99.90;;;;;;4992925;28;20041;-68
2023/06/06 04:03:47;;;;;;;3.55;2.05;;;17.00;99.90;;;;;;5005809;28;20029;-68
2023/06/06 04:06:14;;;;;;;4.95;1.73;;;16.90;99.90;;;;;;4999366;28;20026;-68
2023/06/06 04:08:40;;;;;;;4.20;1.77;;;17.00;99.90;;;;;;5006143;28;20394;-69
2023/06/06 04:11:06;;;;;;;5.50;2.03;;;17.00;99.90;;;;;;4972598;28;20036;-69
2023/06/06 04:13:32;;;;;;;6.82;2.63;;;17.10;99.90;;;;;;4995432;28;20026;-69
2023/06/06 04:15:57;;;;;;;8.10;1.70;;;17.00;99.90;;;;;;4998167;28;20038;-69
2023/06/06 04:18:23;;;;;;;3.08;1.17;;;17.00;99.90;;;;;;5004722;28;20493;-69
2023/06/06 04:20:49;;;;;;;4.82;2.00;;;17.20;99.90;;;;;;4992707;28;20045;-69
2023/06/06 04:23:15;;;;;;;4.25;1.90;;;17.10;99.90;;;;;;5003447;28;20030;-69
2023/06/06 04:25:41;;;;;;;3.25;1.52;;;17.00;99.90;;;;;;4984060;28;20026;-69
2023/06/06 04:28:07;;;;;;;4.78;2.17;;;16.90;99.90;;;;;;4990555;28;20104;-70
2023/06/06 04:30:32;;;;;;;4.13;2.03;;;17.00;99.90;;;;;;4985676;28;20034;-69
2023/06/06 04:32:58;;;;;;;5.40;1.63;;;17.10;99.90;;;;;;5002265;28;20034;-69
2023/06/06 04:35:24;;;;;;;4.25;1.75;;;17.10;99.90;;;;;;4993780;28;20022;-70
2023/06/06 04:37:53;;;;;;;61.53;24.58;;;17.20;99.90;;;;;;5002406;28;20103;-69
2023/06/06 04:40:21;;;;;;;10.60;7.28;;;17.30;99.90;;;;;;5001333;28;20018;-69
2023/06/06 04:42:49;;;;;;;23.40;9.32;;;17.40;99.90;;;;;;4988687;28;20022;-69
2023/06/06 04:45:15;;;;;;;5.30;2.90;;;17.50;99.90;;;;;;4996841;28;20026;-69
2023/06/06 04:47:45;;;;;;;10.60;2.10;;;17.60;99.90;;;;;;5006028;28;20540;-68
2023/06/06 04:50:11;;;;;;;3.53;1.48;;;17.70;99.90;;;;;;4987917;28;20038;-69
2023/06/06 04:52:37;;;;;;;3.00;1.63;;;17.70;99.90;;;;;;5006036;28;20026;-68
2023/06/06 04:55:04;;;;;;;4.32;1.92;;;17.70;99.90;;;;;;5004511;28;20077;-68
2023/06/06 04:57:30;;;;;;;2.83;1.38;;;17.70;99.90;;;;;;5005531;28;20033;-68
2023/06/06 04:59:56;;;;;;;2.63;1.63;;;17.60;99.90;;;;;;4987307;28;20489;-68
2023/06/06 05:02:26;;;;;;;4.07;2.05;;;17.60;99.90;;;;;;5005747;28;20033;-68
2023/06/06 05:04:53;;;;;;;10.70;2.13;;;17.60;99.90;;;;;;5004637;28;20489;-67
2023/06/06 05:07:23;;;;;;;3.58;1.55;;;17.60;99.90;;;;;;5005632;28;20026;-68
2023/06/06 05:09:59;;;;;;;4.22;1.73;;;17.70;99.90;;;;;;4987258;28;20046;-68
2023/06/06 05:12:25;;;;;;;6.32;2.10;;;17.80;99.90;;;;;;5002735;28;20076;-68
2023/06/06 05:14:50;;;;;;;2.25;1.45;;;17.80;99.90;;;;;;4991325;28;20042;-68
2023/06/06 05:17:18;;;;;;;5.43;2.53;;;17.90;99.90;;;;;;4987786;28;20049;-68
2023/06/06 05:19:45;;;;;;;4.15;2.05;;;17.90;99.90;;;;;;4987214;28;20106;-68
2023/06/06 05:22:13;;;;;;;3.50;2.00;;;18.00;99.90;;;;;;5005138;28;20014;-68
2023/06/06 05:24:39;;;;;;;9.82;3.15;;;18.00;99.90;;;;;;4987499;28;20034;-68
2023/06/06 05:27:05;;;;;;;4.20;2.15;;;18.00;99.90;;;;;;5004744;28;20157;-68
2023/06/06 05:29:31;;;;;;;3.45;2.00;;;18.00;99.90;;;;;;5000474;28;20474;-68
2023/06/06 05:31:57;;;;;;;12.55;2.50;;;18.10;99.90;;;;;;4984614;28;20038;-68
2023/06/06 05:34:23;;;;;;;3.92;2.05;;;18.00;99.90;;;;;;4988986;28;20088;-68
2023/06/06 05:36:48;;;;;;;9.00;2.25;;;17.90;99.90;;;;;;5002395;28;20054;-68
2023/06/06 05:39:14;;;;;;;7.20;2.17;;;17.80;99.90;;;;;;5007773;28;20092;-69
2023/06/06 05:41:40;;;;;;;12.23;3.13;;;17.70;99.90;;;;;;5001409;28;20026;-69
2023/06/06 05:44:06;;;;;;;8.70;2.30;;;17.70;99.90;;;;;;5008516;28;20034;-68
2023/06/06 05:46:31;;;;;;;3.97;1.95;;;17.70;99.90;;;;;;5001245;28;20029;-68
2023/06/06 05:48:57;;;;;;;5.18;2.45;;;17.90;99.90;;;;;;5006968;28;20065;-68
2023/06/06 05:51:23;;;;;;;3.47;2.08;;;17.80;99.90;;;;;;4995489;28;20124;-68
2023/06/06 05:53:48;;;;;;;4.60;1.73;;;17.90;99.90;;;;;;5007112;28;20087;-68
2023/06/06 05:56:18;;;;;;;2.65;1.77;;;18.10;99.90;;;;;;4994168;28;20111;-69
2023/06/06 05:58:47;;;;;;;4.88;1.92;;;18.10;99.90;;;;;;4992526;28;20034;-68
2023/06/06 06:01:14;;;;;;;4.63;1.67;;;18.20;99.90;;;;;;4989952;28;20093;-68
2023/06/06 06:03:42;;;;;;;3.97;2.08;;;18.30;99.90;;;;;;5008145;28;20030;-68
2023/06/06 06:06:08;;;;;;;4.53;2.08;;;18.40;99.90;;;;;;5000794;28;20105;-68
2023/06/06 06:08:37;;;;;;;4.97;1.73;;;18.50;99.90;;;;;;5008257;28;20048;-68
2023/06/06 06:11:03;;;;;;;4.32;2.15;;;18.60;99.90;;;;;;4990818;28;20034;-68
2023/06/06 06:13:29;;;;;;;14.10;2.42;;;18.70;99.90;;;;;;4996516;28;20515;-68
2023/06/06 06:15:55;;;;;;;3.20;1.67;;;18.80;99.90;;;;;;4992958;28;20038;-68
2023/06/06 06:18:21;;;;;;;2.40;1.40;;;18.90;99.90;;;;;;4988928;28;20030;-68
2023/06/06 06:20:47;;;;;;;10.43;2.20;;;19.00;99.90;;;;;;4994806;28;20062;-68
2023/06/06 06:23:13;;;;;;;5.57;2.38;;;19.10;99.90;;;;;;5004911;28;20032;-68
2023/06/06 06:25:39;;;;;;;10.93;2.10;;;19.30;99.90;;;;;;4995859;28;20120;-68
2023/06/06 06:28:16;;;;;;;5.53;2.13;;;19.40;99.90;;;;;;4986716;28;20053;-68
2023/06/06 06:30:42;;;;;;;12.18;2.22;;;19.50;99.90;;;;;;4995448;28;20021;-53
2023/06/06 06:33:08;;;;;;;4.18;1.40;;;19.50;99.90;;;;;;5003907;28;20029;-54
2023/06/06 06:35:33;;;;;;;7.03;2.20;;;19.60;99.20;;;;;;5002400;28;20064;-54
2023/06/06 06:37:59;;;;;;;3.20;2.05;;;19.70;98.90;;;;;;4995842;28;20029;-48
2023/06/06 06:40:25;;;;;;;5.60;2.25;;;19.70;98.20;;;;;;4982151;28;20030;-53
2023/06/06 06:42:51;;;;;;;5.50;2.80;;;19.50;98.00;;;;;;5008283;28;20026;-52
2023/06/06 06:45:19;;;;;;;2.63;1.40;;;19.60;97.90;;;;;;4990902;28;20030;-51
2023/06/06 06:47:45;;;;;;;5.75;1.75;;;19.70;98.20;;;;;;4998709;28;20151;-76
2023/06/06 06:50:11;;;;;;;4.20;1.90;;;19.80;97.10;;;;;;4986932;28;20545;-76
2023/06/06 06:52:37;;;;;;;6.85;1.60;;;19.70;97.70;;;;;;5003469;28;20023;-73
2023/06/06 06:55:07;;;;;;;4.88;1.80;;;19.70;97.70;;;;;;4985066;28;20061;-73
2023/06/06 06:57:36;;;;;;;4.65;1.50;;;19.60;97.70;;;;;;5003278;28;20021;-74
2023/06/06 07:00:14;;;;;;;3.95;1.35;;;19.60;97.20;;;;;;5002488;28;20125;-75
2023/06/06 07:02:42;;;;;;;3.58;1.70;;;19.60;97.10;;;;;;5003466;28;20095;-71
2023/06/06 07:05:09;;;;;;;4.80;2.45;;;19.70;97.20;;;;;;4976044;28;20026;-73
2023/06/06 07:07:46;;;;;;;3.75;1.60;;;19.70;97.10;;;;;;4993955;28;20368;-72
2023/06/06 07:10:17;;;;;;;4.05;2.35;;;19.70;96.90;;;;;;4982690;28;20084;-73
2023/06/06 07:12:48;;;;;;;3.85;1.88;;;19.80;97.20;;;;;;4980604;28;20034;-73
2023/06/06 07:15:14;;;;;;;2.92;1.38;;;19.90;96.70;;;;;;4973105;28;20037;-74
2023/06/06 07:17:42;;;;;;;8.15;2.05;;;19.80;95.90;;;;;;4998750;28;20090;-76
2023/06/06 07:20:11;;;;;;;4.78;1.50;;;20.00;96.30;;;;;;4973969;28;20021;-76
2023/06/06 07:22:36;;;;;;;7.63;2.38;;;20.20;96.00;;;;;;5003072;28;20025;-75
2023/06/06 07:25:04;;;;;;;2.88;1.50;;;20.30;95.40;;;;;;4984486;28;20034;-71
2023/06/06 07:27:35;;;;;;;2.85;1.60;;;20.30;95.10;;;;;;5002777;28;20101;-73
2023/06/06 07:30:02;;;;;;;;;;;20.40;95.00;;;;;;5001743;28;20038;-76
2023/06/06 07:32:28;;;;;;;3.90;1.42;;;20.60;94.50;;;;;;5002693;28;19913;-74
2023/06/06 07:34:55;;;;;;;9.60;2.00;;;20.70;94.50;;;;;;4994171;28;20069;-75
2023/06/06 07:37:21;;;;;;;4.15;1.42;;;20.80;93.40;;;;;;5002414;28;20029;-76
2023/06/06 07:39:46;;;;;;;2.60;1.15;;;20.80;93.00;;;;;;4994494;28;20110;-74
2023/06/06 07:42:12;;;;;;;4.80;1.67;;;20.80;92.60;;;;;;5002700;28;20104;-74
2023/06/06 07:44:38;;;;;;;7.07;2.00;;;20.90;93.00;;;;;;4995045;28;20100;-74
2023/06/06 07:47:04;;;;;;;5.88;1.77;;;21.00;92.50;;;;;;5001552;28;20060;-65
2023/06/06 07:49:29;;;;;;;3.55;1.40;;;21.10;92.50;;;;;;4997109;28;20030;-63
2023/06/06 07:51:55;;;;;;;3.72;1.63;;;21.20;92.10;;;;;;4999610;28;20041;-65
2023/06/06 07:54:21;;;;;;;5.65;1.55;;;21.30;91.80;;;;;;4999112;28;20066;-76
2023/06/06 07:56:46;;;;;;;6.18;1.42;;;21.30;92.10;;;;;;4979738;28;20117;-74
2023/06/06 07:59:13;;;;;;;4.30;1.88;;;21.30;92.10;;;;;;5001940;28;20035;-74
2023/06/06 08:01:39;;;;;;;4.28;2.15;;;21.30;92.20;;;;;;4962043;28;20482;-72
2023/06/06 08:04:07;;;;;;;4.82;1.50;;;21.50;92.20;;;;;;4985893;28;20076;-74
2023/06/06 08:06:37;;;;;;;3.60;1.40;;;21.60;91.80;;;;;;4994895;28;20029;-75
2023/06/06 08:09:06;;;;;;;2.85;1.83;;;21.80;92.20;;;;;;4996933;28;20030;-75
2023/06/06 08:11:34;;;;;;;4.18;1.42;;;21.80;92.30;;;;;;4979120;28;20029;-74
2023/06/06 08:14:01;;;;;;;2.75;1.38;;;21.90;91.20;;;;;;4971322;28;20034;-64
2023/06/06 08:16:26;;;;;;;4.32;1.98;;;21.80;91.60;;;;;;4994960;28;20027;-70
2023/06/06 08:18:52;;;;;;;4.75;1.33;;;21.70;91.60;;;;;;5009201;28;20500;-67
2023/06/06 08:21:18;;;;;;;3.38;1.30;;;21.70;91.30;;;;;;4996624;28;20019;-67
2023/06/06 08:23:43;;;;;;;4.47;2.13;;;21.70;91.60;;;;;;4992325;28;20030;-76
2023/06/06 08:26:09;;;;;;;2.78;1.42;;;22.00;91.60;;;;;;5003162;28;20561;-75
2023/06/06 08:28:35;;;;;;;5.60;1.30;;;21.90;90.90;;;;;;5010226;28;20034;-76
2023/06/06 08:31:02;;;;;;;2.55;1.45;;;22.00;90.40;;;;;;4995295;28;20038;-72
2023/06/06 08:33:27;;;;;;;3.88;1.35;;;22.10;90.40;;;;;;5008735;28;20096;-71
2023/06/06 08:35:53;;;;;;;2.20;1.48;;;22.20;91.00;;;;;;4991977;28;20030;-71
2023/06/06 08:38:19;;;;;;;2.67;1.73;;;22.30;90.80;;;;;;5000596;28;20026;-71
2023/06/06 08:40:45;;;;;;;2.88;1.38;;;22.30;90.20;;;;;;5001235;28;20025;-71
2023/06/06 08:43:13;;;;;;;3.35;1.58;;;22.00;90.30;;;;;;5000509;28;20023;-71
2023/06/06 08:45:51;;;;;;;2.95;1.45;;;22.30;90.10;;;;;;4969607;28;20031;-71
2023/06/06 08:48:18;;;;;;;3.72;1.55;;;22.60;90.10;;;;;;5000907;28;20109;-71
2023/06/06 08:50:44;;;;;;;3.80;2.30;;;22.40;89.40;;;;;;4987095;28;20032;-72
2023/06/06 08:53:14;;;;;;;3.08;1.73;;;22.60;89.20;;;;;;5005889;28;20515;-71
2023/06/06 08:55:40;;;;;;;2.40;1.30;;;23.00;89.00;;;;;;4971553;28;20038;-72
2023/06/06 08:58:07;;;;;;;4.72;1.58;;;23.10;89.00;;;;;;4992004;23;20506;-66
2023/06/06 09:00:33;;;;;;;5.75;1.92;;;23.40;87.70;;;;;;5000972;28;20061;-66
2023/06/06 09:03:02;;;;;;;4.88;1.92;;;23.40;87.40;;;;;;4988238;28;20039;-66
2023/06/06 09:05:28;;;;;;;2.83;1.30;;;23.50;86.90;;;;;;4986099;28;20022;-66
2023/06/06 09:07:55;;;;;;;4.53;1.80;;;23.40;86.90;;;;;;4984175;28;20031;-67
2023/06/06 09:10:21;;;;;;;3.35;1.70;;;23.50;86.20;;;;;;4958926;28;20467;-66
2023/06/06 09:12:48;;;;;;;4.25;1.50;;;23.70;86.20;;;;;;4940359;28;20543;-67
2023/06/06 09:15:14;;;;;;;6.07;1.63;;;23.80;85.70;;;;;;4966475;28;20047;-66
2023/06/06 09:17:45;;;;;;;3.45;1.50;;;24.00;84.00;;;;;;4969753;28;20035;-66
2023/06/06 09:20:15;;;;;;;2.90;1.52;;;23.90;84.60;;;;;;4966659;28;20031;-66
2023/06/06 09:22:49;;;;;;;3.55;1.85;;;24.10;83.80;;;;;;4969784;28;20035;-66
2023/06/06 09:25:44;;;;;;;2.58;1.48;;;24.40;83.60;;;;;;4956001;28;20027;-66
2023/06/06 09:28:10;;;;;;;2.38;1.25;;;24.40;83.80;;;;;;4955717;28;20042;-66
2023/06/06 09:30:36;;;;;;;3.15;2.13;;;24.60;83.70;;;;;;4965111;28;20364;-67
2023/06/06 09:33:04;;;;;;;2.70;1.50;;;24.80;82.40;;;;;;4970610;28;20097;-67
2023/06/06 09:35:35;;;;;;;3.10;1.60;;;24.70;82.30;;;;;;4964807;28;20106;-67
2023/06/06 09:38:15;;;;;;;10.48;1.70;;;24.80;82.60;;;;;;4968331;28;20043;-67
2023/06/06 09:40:50;;;;;;;7.95;2.13;;;24.90;82.50;;;;;;4962913;28;20023;-67
2023/06/06 09:43:22;;;;;;;3.80;1.70;;;24.90;81.90;;;;;;4958605;28;20031;-67
2023/06/06 09:45:50;;;;;;;3.88;1.67;;;24.80;81.90;;;;;;4966176;28;20029;-67
2023/06/06 09:48:25;;;;;;;3.58;1.90;;;24.70;82.90;;;;;;4970403;28;20030;-67
2023/06/06 09:50:51;;;;;;;5.00;2.00;;;25.10;82.60;;;;;;4964602;28;20050;-67
2023/06/06 09:53:17;;;;;;;2.53;1.50;;;25.20;81.30;;;;;;4970117;28;20033;-67
2023/06/06 09:55:44;;;;;;;2.53;1.52;;;25.30;81.80;;;;;;4965441;28;20032;-66
2023/06/06 09:58:18;;;;;;;4.38;1.50;;;25.20;81.50;;;;;;4970000;28;20026;-67
2023/06/06 10:00:45;;;;;;;3.78;1.55;;;25.50;80.90;;;;;;4965624;28;20093;-65
2023/06/06 10:03:22;;;;;;;3.63;1.55;;;25.30;80.30;;;;;;4968385;28;20500;-66
2023/06/06 10:05:50;;;;;;;3.40;1.80;;;25.50;82.10;;;;;;4965483;28;20049;-66
2023/06/06 10:08:17;;;;;;;5.90;1.95;;;25.60;80.30;;;;;;4965675;28;20497;-63
2023/06/06 10:10:46;;;;;;;8.38;1.85;;;25.90;79.20;;;;;;4956897;28;20143;-64
2023/06/06 10:13:20;;;;;;;3.47;1.77;;;26.10;77.80;;;;;;4944194;28;20479;-64
2023/06/06 10:15:47;;;;;;;5.35;2.00;;;26.10;79.10;;;;;;4947991;28;20035;-64
2023/06/06 10:18:13;;;;;;;3.30;1.45;;;26.30;80.20;;;;;;4953862;28;20031;-65
2023/06/06 10:20:40;;;;;;;4.47;2.35;;;26.70;79.50;;;;;;4964087;28;20027;-70
2023/06/06 10:23:06;;;;;;;4.85;1.73;;;26.80;76.50;;;;;;4969318;28;20126;-69
2023/06/06 10:25:34;;;;;;;3.58;2.10;;;27.00;78.00;;;;;;4963676;28;20027;-71
2023/06/06 10:28:20;;;;;;;3.75;1.33;;;27.10;77.40;;;;;;4969495;28;20035;-70
2023/06/06 10:31:15;;;;;;;3.70;1.90;;;27.00;76.00;;;;;;4965162;28;20065;-68
2023/06/06 10:34:03;;;;;;;3.03;1.67;;;26.80;78.00;;;;;;4968242;28;20060;-65
2023/06/06 10:36:43;;;;;;;8.10;1.70;;;26.70;77.30;;;;;;4962931;28;20487;-65
2023/06/06 10:39:29;;;;;;;4.80;2.00;;;26.50;76.30;;;;;;4960471;28;20089;-65
2023/06/06 10:42:08;;;;;;;3.13;1.55;;;26.70;76.50;;;;;;4954174;28;20058;-65
2023/06/06 10:44:46;;;;;;;3.03;1.58;;;26.60;77.00;;;;;;4960650;28;20023;-67
2023/06/06 10:47:21;;;;;;;4.13;1.90;;;26.70;72.60;;;;;;4937069;29;20396;-66
2023/06/06 10:50:11;;;;;;;2.53;1.38;;;26.90;74.20;;;;;;4961960;28;20118;-65
2023/06/06 10:52:58;;;;;;;3.17;1.77;;;27.20;73.00;;;;;;4955106;28;20142;-66
2023/06/06 10:55:24;;;;;;;3.05;1.45;;;27.10;72.30;;;;;;4955646;28;20043;-65
2023/06/06 10:58:03;;;;;;;5.35;2.28;;;27.30;72.50;;;;;;4953751;28;20043;-63
2023/06/06 11:00:35;;;;;;;2.97;1.30;;;27.30;71.20;;;;;;4964997;28;20026;-63
2023/06/06 11:03:29;;;;;;;3.53;1.77;;;27.60;68.70;;;;;;4967591;28;20738;-65
2023/06/06 11:06:01;;;;;;;2.88;1.42;;;27.30;65.90;;;;;;4950941;28;20043;-64
2023/06/06 11:08:53;;;;;;;3.10;1.38;;;27.50;66.80;;;;;;4963095;28;20387;-64
2023/06/06 11:11:30;;;;;;;2.80;1.52;;;27.20;67.50;;;;;;4943378;28;20038;-64
2023/06/06 11:13:57;;;;;;;2.30;1.20;;;27.50;65.20;;;;;;4953969;28;20066;-65
2023/06/06 11:16:41;;;;;;;3.25;1.25;;;27.90;64.70;;;;;;4966502;28;20475;-65
2023/06/06 11:19:08;;;;;;;2.47;1.40;;;28.20;64.80;;;;;;4965156;28;20085;-64
2023/06/06 11:21:38;;;;;;;4.05;1.73;;;28.50;63.40;;;;;;4967828;28;20122;-66
2023/06/06 11:24:06;;;;;;;1.73;0.95;;;28.80;61.20;;;;;;4959263;28;20035;-65
2023/06/06 11:26:37;;;;;;;3.30;1.38;;;28.80;60.50;;;;;;4967434;28;20501;-66
2023/06/06 11:29:05;;;;;;;4.57;1.90;;;28.00;59.00;;;;;;4960675;28;20035;-66
2023/06/06 11:31:32;;;;;;;2.75;1.73;;;28.30;59.20;;;;;;4965859;28;20027;-66
2023/06/06 11:34:11;;;;;;;2.58;1.45;;;28.40;60.40;;;;;;4959881;28;20035;-66
2023/06/06 11:36:44;;;;;;;3.33;1.37;;;28.60;60.30;;;;;;4966814;28;20530;-68
2023/06/06 11:39:12;;;;;;;3.03;1.60;;;29.30;62.50;;;;;;4956741;28;20034;-69
2023/06/06 11:41:49;;;;;;;3.83;1.70;;;29.20;60.80;;;;;;4956281;28;20539;-68
2023/06/06 11:44:17;;;;;;;2.97;1.40;;;29.10;59.60;;;;;;4949360;28;20063;-70
2023/06/06 11:46:47;;;;;;;2.05;1.20;;;28.50;60.00;;;;;;4933650;28;20119;-68
2023/06/06 11:49:13;;;;;;;;;;;28.70;59.90;;;;;;4953848;28;20027;-69
2023/06/06 11:51:40;;;;;;;6.43;1.48;;;28.80;60.00;;;;;;4967767;28;20333;-68
2023/06/06 11:54:13;;;;;;;2.25;1.20;;;28.30;58.50;;;;;;4958511;28;20490;-68
2023/06/06 11:56:40;;;;;;;3.33;1.38;;;28.20;58.60;;;;;;4968066;28;20041;-69
2023/06/06 11:59:08;;;;;;;5.38;1.58;;;28.70;60.00;;;;;;4958104;28;20027;-68
2023/06/06 12:01:35;;;;;;;3.75;1.65;;;29.10;58.50;;;;;;4966273;28;20031;-67
2023/06/06 12:04:00;;;;;;;2.45;1.38;;;29.00;58.70;;;;;;4960079;28;20038;-68
2023/06/06 12:06:26;;;;;;;2.20;1.17;;;29.10;58.40;;;;;;4966407;28;20038;-66
2023/06/06 12:08:52;;;;;;;2.97;1.20;;;29.10;57.50;;;;;;4953259;28;20043;-65
2023/06/06 12:11:29;;;;;;;3.72;1.30;;;28.70;56.90;;;;;;4931632;29;20127;-64
2023/06/06 12:13:54;;;;;;;5.22;1.30;;;29.00;57.30;;;;;;4972238;28;20031;-66
2023/06/06 12:16:28;;;;;;;3.35;1.35;;;28.60;58.30;;;;;;4965053;28;20031;-66
2023/06/06 12:18:54;;;;;;;2.50;1.25;;;28.60;57.10;;;;;;4959954;28;20082;-67
2023/06/06 12:21:22;;;;;;;2.40;1.38;;;28.90;57.70;;;;;;4953092;28;20020;-66
2023/06/06 12:23:48;;;;;;;3.33;1.52;;;29.40;55.70;;;;;;4955317;28;20023;-67
2023/06/06 12:26:16;;;;;;;3.90;1.20;;;29.50;54.70;;;;;;4943790;28;20450;-66
2023/06/06 12:29:01;;;;;;;5.50;1.85;;;29.20;54.10;;;;;;4956727;28;20035;-67
2023/06/06 12:31:30;;;;;;;12.13;5.32;;;29.50;52.10;;;;;;4966105;28;20027;-68
2023/06/06 12:34:00;;;;;;;2.40;1.40;;;29.40;54.20;;;;;;4959299;28;20531;-62
2023/06/06 12:36:26;;;;;;;6.90;1.35;;;29.70;54.70;;;;;;4946295;28;20036;-65
2023/06/06 12:39:03;;;;;;;3.22;1.65;;;30.30;54.70;;;;;;4947576;28;20134;-65
2023/06/06 12:41:40;;;;;;;4.93;1.17;;;30.60;52.90;;;;;;4948090;28;20035;-65
2023/06/06 12:44:15;;;;;;;2.25;1.17;;;30.90;54.90;;;;;;4957469;28;20082;-66
2023/06/06 12:46:44;;;;;;;3.63;1.60;;;30.80;52.50;;;;;;4966185;28;20749;-66
2023/06/06 12:49:10;;;;;;;2.78;1.52;;;30.10;54.60;;;;;;4940121;28;20054;-65
2023/06/06 12:51:40;;;;;;;3.03;1.70;;;29.60;52.60;;;;;;4940598;28;20036;-65
2023/06/06 12:54:06;;;;;;;3.00;1.17;;;29.40;53.30;;;;;;4948195;28;20043;-65